createdAt,value
2022-08-07T00:01:42.887Z,24.45
2022-08-07T00:03:51.115Z,24.25
2022-08-07T00:06:17.746Z,24.05
2022-08-07T00:08:52.900Z,24.01
2022-08-07T00:11:21.788Z,23.96
2022-08-07T00:13:59.547Z,23.77
2022-08-07T00:16:28.083Z,23.75
2022-08-07T00:18:54.796Z,23.77
2022-08-07T00:21:56.269Z,23.70
2022-08-07T00:24:08.811Z,23.72
2022-08-07T00:26:49.419Z,23.59
2022-08-07T00:29:25.944Z,23.67
2022-08-07T00:32:01.827Z,23.58
2022-08-07T00:34:28.634Z,23.52
2022-08-07T00:36:56.071Z,23.68
2022-08-07T00:39:22.614Z,23.66
2022-08-07T00:42:01.771Z,23.67
2022-08-07T00:44:33.277Z,23.65
2022-08-07T00:47:01.107Z,23.62
2022-08-07T00:50:19.474Z,23.61
2022-08-07T00:52:14.824Z,23.57
2022-08-07T00:54:46.834Z,23.65
2022-08-07T00:57:21.918Z,23.59
2022-08-07T00:59:49.215Z,23.64
2022-08-07T01:02:28.656Z,23.63
2022-08-07T01:04:58.715Z,23.68
2022-08-07T01:07:27.604Z,23.68
2022-08-07T01:10:06.873Z,23.53
2022-08-07T01:12:40.050Z,23.41
2022-08-07T01:15:20.275Z,23.40
2022-08-07T01:17:46.976Z,23.41
2022-08-07T01:20:16.729Z,23.46
2022-08-07T01:22:46.798Z,23.55
2022-08-07T01:25:40.288Z,23.63
2022-08-07T01:28:14.470Z,23.70
2022-08-07T01:30:42.122Z,23.72
2022-08-07T01:33:08.870Z,23.77
2022-08-07T01:35:36.960Z,23.67
2022-08-07T01:38:24.913Z,23.70
2022-08-07T01:40:55.537Z,23.66
2022-08-07T01:43:23.177Z,23.72
2022-08-07T01:45:54.771Z,23.82
2022-08-07T01:48:30.539Z,23.77
2022-08-07T01:51:24.444Z,23.76
2022-08-07T01:54:09.604Z,23.84
2022-08-07T01:56:53.133Z,23.76
2022-08-07T01:59:36.211Z,23.69
2022-08-07T02:02:10.399Z,23.73
2022-08-07T02:04:52.590Z,23.59
2022-08-07T02:07:44.969Z,23.58
2022-08-07T02:10:18.920Z,23.57
2022-08-07T02:12:50.115Z,23.53
2022-08-07T02:15:22.777Z,23.37
2022-08-07T02:17:51.830Z,23.30
2022-08-07T02:20:23.298Z,23.25
2022-08-07T02:22:55.325Z,23.22
2022-08-07T02:26:10.532Z,23.20
2022-08-07T02:28:14.080Z,23.14
2022-08-07T02:30:52.270Z,23.06
2022-08-07T02:33:20.196Z,23.03
2022-08-07T02:36:29.914Z,23.03
2022-08-07T02:38:38.231Z,23.12
2022-08-07T02:41:05.525Z,23.35
2022-08-07T02:43:38.887Z,23.42
2022-08-07T02:46:07.356Z,23.54
2022-08-07T02:48:34.510Z,23.66
2022-08-07T02:51:07.135Z,23.70
2022-08-07T02:53:55.837Z,23.74
2022-08-07T02:56:26.189Z,23.80
2022-08-07T02:58:55.764Z,23.59
2022-08-07T03:01:35.315Z,23.62
2022-08-07T03:04:07.691Z,23.45
2022-08-07T03:06:40.582Z,23.35
2022-08-07T03:09:11.121Z,23.39
2022-08-07T03:11:52.206Z,23.43
2022-08-07T03:14:25.298Z,23.41
2022-08-07T03:16:52.498Z,23.55
2022-08-07T03:19:19.410Z,23.48
2022-08-07T03:21:50.759Z,23.44
2022-08-07T03:24:26.985Z,23.54
2022-08-07T03:26:59.736Z,23.61
2022-08-07T03:29:36.607Z,23.73
2022-08-07T03:32:12.807Z,23.77
2022-08-07T03:34:47.259Z,23.79
2022-08-07T03:37:32.507Z,23.76
2022-08-07T03:40:15.889Z,23.76
2022-08-07T03:42:43.624Z,23.73
2022-08-07T03:45:11.220Z,23.72
2022-08-07T03:47:47.806Z,23.75
2022-08-07T03:50:23.052Z,23.83
2022-08-07T03:52:52.424Z,23.80
2022-08-07T03:55:19.236Z,23.80
2022-08-07T03:58:34.144Z,23.87
2022-08-07T04:00:36.668Z,23.87
2022-08-07T04:03:05.178Z,23.89
2022-08-07T04:05:40.491Z,23.90
2022-08-07T04:08:13.180Z,23.93
2022-08-07T04:10:43.604Z,23.93
2022-08-07T04:13:22.971Z,23.83
2022-08-07T04:15:54.618Z,23.70
2022-08-07T04:18:56.671Z,23.59
2022-08-07T04:21:07.946Z,23.46
2022-08-07T04:23:43.612Z,23.34
2022-08-07T04:26:22.869Z,23.38
2022-08-07T04:28:51.694Z,23.43
2022-08-07T04:31:20.336Z,23.51
2022-08-07T04:34:06.689Z,23.47
2022-08-07T04:36:43.891Z,23.50
2022-08-07T04:39:12.185Z,23.47
2022-08-07T04:41:38.862Z,23.41
2022-08-07T04:44:12.957Z,23.48
2022-08-07T04:47:08.360Z,23.51
2022-08-07T04:49:57.516Z,23.50
2022-08-07T04:52:51.352Z,23.51
2022-08-07T04:58:10.345Z,23.51
2022-08-07T04:59:17.570Z,23.48
2022-08-07T05:01:30.000Z,23.59
2022-08-07T05:04:17.148Z,23.64
2022-08-07T05:07:01.250Z,23.65
2022-08-07T05:09:58.513Z,23.71
2022-08-07T05:12:33.294Z,23.51
2022-08-07T05:15:23.016Z,23.43
2022-08-07T05:17:54.925Z,23.51
2022-08-07T05:20:26.896Z,23.57
2022-08-07T05:22:58.122Z,23.55
2022-08-07T05:25:54.572Z,23.48
2022-08-07T05:28:20.589Z,23.44
2022-08-07T05:30:49.879Z,23.26
2022-08-07T05:33:20.818Z,23.28
2022-08-07T05:35:49.946Z,23.37
2022-08-07T05:39:01.382Z,23.30
2022-08-07T05:41:12.047Z,23.13
2022-08-07T05:44:01.128Z,22.99
2022-08-07T05:46:31.297Z,22.79
2022-08-07T05:48:59.703Z,22.72
2022-08-07T05:51:26.460Z,22.67
2022-08-07T05:54:09.385Z,22.77
2022-08-07T05:56:47.822Z,22.91
2022-08-07T05:59:21.095Z,22.92
2022-08-07T06:01:50.245Z,22.97
2022-08-07T06:04:19.738Z,22.98
2022-08-07T06:06:47.886Z,22.79
2022-08-07T06:10:01.846Z,22.73
2022-08-07T06:12:10.482Z,22.65
2022-08-07T06:14:39.498Z,22.69
2022-08-07T06:17:08.326Z,22.74
2022-08-07T06:19:52.438Z,22.80
2022-08-07T06:22:27.401Z,22.83
2022-08-07T06:25:01.121Z,22.79
2022-08-07T06:28:00.481Z,22.60
2022-08-07T06:30:32.038Z,22.61
2022-08-07T06:33:02.482Z,22.67
2022-08-07T06:35:39.104Z,22.82
2022-08-07T06:38:20.095Z,22.86
2022-08-07T06:40:51.949Z,22.83
2022-08-07T06:43:22.607Z,22.90
2022-08-07T06:45:50.594Z,23.03
2022-08-07T06:48:25.018Z,22.97
2022-08-07T06:50:54.872Z,23.05
2022-08-07T06:55:27.407Z,23.04
2022-08-07T06:56:15.566Z,23.01
2022-08-07T07:00:13.124Z,23.10
2022-08-07T07:01:43.671Z,23.17
2022-08-07T07:04:32.638Z,23.17
2022-08-07T07:07:01.144Z,23.29
2022-08-07T07:09:31.227Z,23.35
2022-08-07T07:12:25.627Z,23.29
2022-08-07T07:15:26.078Z,23.46
2022-08-07T07:18:02.573Z,23.57
2022-08-07T07:20:39.561Z,23.49
2022-08-07T07:24:09.176Z,23.47
2022-08-07T07:26:33.145Z,23.66
2022-08-07T07:29:40.538Z,23.80
2022-08-07T07:31:52.391Z,23.92
2022-08-07T07:34:31.009Z,23.91
2022-08-07T07:37:14.281Z,23.95
2022-08-07T07:39:54.614Z,24.01
2022-08-07T07:42:25.901Z,24.11
2022-08-07T07:45:02.949Z,23.98
2022-08-07T07:47:52.114Z,24.17
2022-08-07T07:50:32.870Z,24.21
2022-08-07T07:53:05.878Z,24.28
2022-08-07T07:55:54.759Z,24.46
2022-08-07T07:58:29.430Z,24.60
2022-08-07T08:00:57.600Z,24.69
2022-08-07T08:04:06.053Z,24.67
2022-08-07T08:06:13.146Z,24.71
2022-08-07T08:08:41.952Z,24.81
2022-08-07T08:11:16.410Z,24.79
2022-08-07T08:13:54.831Z,24.70
2022-08-07T08:16:30.084Z,24.73
2022-08-07T08:19:00.319Z,24.82
2022-08-07T08:22:03.353Z,24.83
2022-08-07T08:25:04.496Z,24.95
2022-08-07T08:27:55.902Z,25.01
2022-08-07T08:30:26.893Z,25.09
2022-08-07T08:32:56.825Z,25.46
2022-08-07T08:35:28.931Z,25.48
2022-08-07T08:38:08.684Z,25.43
2022-08-07T08:40:43.880Z,25.55
2022-08-07T08:43:22.091Z,25.59
2022-08-07T08:46:16.850Z,25.63
2022-08-07T08:48:55.596Z,25.72
2022-08-07T08:52:12.759Z,25.60
2022-08-07T08:54:27.616Z,25.64
2022-08-07T08:56:58.086Z,25.86
2022-08-07T08:59:41.993Z,25.85
2022-08-07T09:02:34.804Z,25.76
2022-08-07T09:05:31.930Z,25.74
2022-08-07T09:08:24.327Z,25.86
2022-08-07T09:11:24.351Z,25.98
2022-08-07T09:14:07.276Z,26.10
2022-08-07T09:17:08.501Z,26.08
2022-08-07T09:19:56.611Z,26.02
2022-08-07T09:24:33.848Z,26.07
2022-08-07T09:25:54.200Z,26.05
2022-08-07T09:30:00.693Z,25.93
2022-08-07T09:31:48.625Z,25.96
2022-08-07T09:34:28.006Z,25.87
2022-08-07T09:37:05.011Z,26.00
2022-08-07T09:39:53.672Z,26.07
2022-08-07T09:42:36.645Z,26.02
2022-08-07T09:47:24.706Z,25.87
2022-08-07T09:48:50.144Z,25.87
2022-08-07T09:52:16.325Z,25.90
2022-08-07T09:54:40.238Z,25.90
2022-08-07T09:57:21.942Z,25.97
2022-08-07T10:00:09.221Z,26.07
2022-08-07T10:04:05.923Z,26.05
2022-08-07T10:06:27.579Z,26.04
2022-08-07T10:09:10.851Z,26.10
2022-08-07T10:12:16.697Z,26.15
2022-08-07T10:14:56.980Z,26.15
2022-08-07T10:18:03.337Z,26.17
2022-08-07T10:20:44.339Z,26.15
2022-08-07T10:24:04.971Z,26.34
2022-08-07T10:26:53.234Z,26.55
2022-08-07T10:29:53.055Z,26.50
2022-08-07T10:32:52.956Z,26.43
2022-08-07T10:35:55.753Z,26.41
2022-08-07T10:38:41.959Z,26.52
2022-08-07T10:41:51.862Z,26.49
2022-08-07T10:44:37.710Z,26.39
2022-08-07T10:47:50.574Z,26.28
2022-08-07T10:50:25.944Z,26.31
2022-08-07T10:53:08.935Z,26.37
2022-08-07T10:55:50.750Z,26.37
2022-08-07T10:58:47.568Z,26.58
2022-08-07T11:01:51.918Z,26.45
2022-08-07T11:04:51.408Z,26.44
2022-08-07T11:08:06.516Z,26.69
2022-08-07T11:11:00.100Z,26.84
2022-08-07T11:14:45.144Z,27.03
2022-08-07T11:16:52.740Z,27.34
2022-08-07T11:19:31.015Z,27.53
2022-08-07T11:22:36.097Z,27.90
2022-08-07T11:25:18.629Z,28.07
2022-08-07T11:28:01.646Z,28.28
2022-08-07T11:30:42.240Z,28.33
2022-08-07T11:33:54.190Z,27.85
2022-08-07T11:36:49.636Z,27.31
2022-08-07T11:39:39.691Z,26.78
2022-08-07T11:42:33.719Z,26.72
2022-08-07T11:45:12.348Z,26.98
2022-08-07T11:48:02.104Z,26.99
2022-08-07T11:51:10.936Z,27.43
2022-08-07T11:54:09.757Z,27.50
2022-08-07T11:56:56.221Z,27.83
2022-08-07T12:00:12.505Z,28.01
2022-08-07T12:03:42.179Z,27.94
2022-08-07T12:06:01.985Z,27.80
2022-08-07T12:08:55.897Z,27.72
2022-08-07T12:11:32.470Z,28.10
2022-08-07T12:14:11.456Z,28.45
2022-08-07T12:17:00.462Z,27.95
2022-08-07T12:20:03.189Z,28.01
2022-08-07T12:22:58.546Z,27.94
2022-08-07T12:26:06.139Z,28.12
2022-08-07T12:29:20.324Z,28.00
2022-08-07T12:32:30.044Z,28.09
2022-08-07T12:34:59.153Z,28.43
2022-08-07T12:38:11.466Z,28.35
2022-08-07T12:40:46.336Z,28.14
2022-08-07T12:43:10.969Z,28.28
2022-08-07T12:46:06.465Z,28.55
2022-08-07T12:49:10.149Z,28.75
2022-08-07T12:52:18.071Z,28.73
2022-08-07T12:54:55.037Z,28.91
2022-08-07T12:57:38.914Z,28.87
2022-08-07T13:00:20.984Z,28.96
2022-08-07T13:03:07.050Z,28.95
2022-08-07T13:06:04.706Z,28.88
2022-08-07T13:08:26.657Z,28.70
2022-08-07T13:11:19.075Z,28.76
2022-08-07T13:14:03.161Z,28.94
2022-08-07T13:16:54.919Z,28.67
2022-08-07T13:19:46.109Z,29.04
2022-08-07T13:22:33.093Z,28.89
2022-08-07T13:25:23.907Z,28.73
2022-08-07T13:28:13.702Z,28.69
2022-08-07T13:30:53.367Z,28.57
2022-08-07T13:34:32.872Z,28.88
2022-08-07T13:36:42.388Z,28.98
2022-08-07T13:39:28.480Z,29.16
2022-08-07T13:42:10.116Z,29.25
2022-08-07T13:44:39.651Z,28.97
2022-08-07T13:47:15.749Z,28.77
2022-08-07T13:50:33.526Z,28.83
2022-08-07T13:52:41.189Z,28.86
2022-08-07T13:55:25.683Z,29.00
2022-08-07T13:58:27.829Z,29.18
2022-08-07T14:01:08.802Z,29.40
2022-08-07T14:04:07.267Z,29.22
2022-08-07T14:06:36.980Z,29.25
2022-08-07T14:09:06.216Z,29.22
2022-08-07T14:11:53.595Z,29.03
2022-08-07T14:14:38.627Z,29.22
2022-08-07T14:17:32.278Z,29.21
2022-08-07T14:20:40.754Z,29.14
2022-08-07T14:22:53.100Z,29.15
2022-08-07T14:25:29.448Z,29.18
2022-08-07T14:28:13.548Z,29.22
2022-08-07T14:30:45.773Z,29.30
2022-08-07T14:33:15.168Z,29.18
2022-08-07T14:35:43.335Z,29.13
2022-08-07T14:38:26.863Z,29.17
2022-08-07T14:41:02.159Z,28.90
2022-08-07T14:43:59.384Z,28.99
2022-08-07T14:46:31.095Z,29.10
2022-08-07T14:49:00.297Z,29.28
2022-08-07T14:54:42.910Z,29.40
2022-08-07T15:00:05.037Z,29.26
2022-08-07T15:02:34.580Z,29.29
2022-08-07T15:05:04.014Z,29.31
2022-08-07T15:07:47.675Z,29.26
2022-08-07T15:13:23.324Z,29.29
2022-08-07T15:15:58.949Z,29.39
2022-08-07T15:18:36.220Z,29.38
2022-08-07T15:21:58.769Z,29.31
2022-08-07T15:25:16.235Z,29.15
2022-08-07T15:27:21.586Z,29.11
2022-08-07T15:30:06.419Z,29.05
2022-08-07T15:36:00.356Z,29.11
2022-08-07T15:38:33.186Z,29.14
2022-08-07T15:41:23.954Z,29.14
2022-08-07T15:44:04.821Z,29.15
2022-08-07T15:46:38.550Z,29.17
2022-08-07T15:52:21.622Z,28.97
2022-08-07T15:55:03.537Z,29.02
2022-08-07T15:57:47.615Z,28.95
2022-08-07T16:00:31.896Z,29.15
2022-08-07T16:03:46.700Z,29.10
2022-08-07T16:06:12.936Z,28.99
2022-08-07T16:08:45.819Z,28.98
2022-08-07T16:11:41.592Z,28.95
2022-08-07T16:14:51.353Z,28.93
2022-08-07T16:18:02.245Z,28.80
2022-08-07T16:20:34.261Z,28.67
2022-08-07T16:23:54.662Z,28.69
2022-08-07T16:26:30.769Z,28.68
2022-08-07T16:30:08.828Z,28.60
2022-08-07T16:32:34.972Z,28.52
2022-08-07T16:35:58.781Z,28.54
2022-08-07T16:38:57.456Z,28.56
2022-08-07T16:41:54.411Z,28.57
2022-08-07T16:45:14.357Z,28.54
2022-08-07T16:48:02.651Z,28.63
2022-08-07T16:51:20.667Z,28.63
2022-08-07T16:54:06.457Z,28.50
2022-08-07T16:56:53.210Z,28.39
2022-08-07T16:59:46.114Z,28.37
2022-08-07T17:03:06.063Z,28.32
2022-08-07T17:06:26.716Z,28.26
2022-08-07T17:08:10.913Z,28.21
2022-08-07T17:10:43.947Z,28.16
2022-08-07T17:13:41.312Z,28.11
2022-08-07T17:16:33.302Z,28.11
2022-08-07T17:18:59.697Z,28.12
2022-08-07T17:21:51.509Z,28.22
2022-08-07T17:24:46.234Z,28.19
2022-08-07T17:27:19.896Z,28.15
2022-08-07T17:30:15.416Z,28.07
2022-08-07T17:34:10.311Z,28.06
2022-08-07T17:36:19.982Z,28.01
2022-08-07T17:38:55.358Z,28.01
2022-08-07T17:42:01.837Z,27.95
2022-08-07T17:44:50.562Z,27.92
2022-08-07T17:47:41.942Z,27.84
2022-08-07T17:50:18.967Z,27.86
2022-08-07T17:53:58.248Z,27.87
2022-08-07T17:56:15.378Z,27.84
2022-08-07T17:58:56.802Z,27.80
2022-08-07T18:01:36.680Z,27.82
2022-08-07T18:04:42.157Z,27.77
2022-08-07T18:07:21.006Z,27.75
2022-08-07T18:10:10.008Z,27.70
2022-08-07T18:12:55.454Z,27.67
2022-08-07T18:15:32.540Z,27.67
2022-08-07T18:19:02.717Z,27.69
2022-08-07T18:21:38.140Z,27.56
2022-08-07T18:24:33.889Z,27.53
2022-08-07T18:27:48.990Z,27.53
2022-08-07T18:30:31.480Z,27.49
2022-08-07T18:33:37.751Z,27.46
2022-08-07T18:36:32.780Z,27.37
2022-08-07T18:40:06.916Z,27.25
2022-08-07T18:42:21.620Z,27.13
2022-08-07T18:45:44.953Z,27.03
2022-08-07T18:50:32.339Z,26.94
2022-08-07T18:52:35.591Z,26.86
2022-08-07T18:54:54.054Z,26.81
2022-08-07T18:57:58.737Z,26.83
2022-08-07T19:01:02.373Z,26.81
2022-08-07T19:03:42.581Z,26.78
2022-08-07T19:06:33.905Z,26.84
2022-08-07T19:09:57.487Z,26.96
2022-08-07T19:12:17.843Z,26.96
2022-08-07T19:16:02.937Z,26.96
2022-08-07T19:18:34.918Z,26.94
2022-08-07T19:21:46.645Z,27.00
2022-08-07T19:24:02.319Z,26.93
2022-08-07T19:26:55.599Z,26.86
2022-08-07T19:30:55.871Z,26.78
2022-08-07T19:32:29.144Z,26.81
2022-08-07T19:35:02.900Z,26.81
2022-08-07T19:37:56.847Z,26.78
2022-08-07T19:40:30.933Z,26.77
2022-08-07T19:43:00.561Z,26.68
2022-08-07T19:46:04.673Z,26.53
2022-08-07T19:48:29.523Z,26.41
2022-08-07T19:51:19.820Z,26.41
2022-08-07T19:54:31.488Z,26.42
2022-08-07T19:58:00.224Z,26.38
2022-08-07T19:59:41.229Z,26.37
2022-08-07T20:02:19.285Z,26.38
2022-08-07T20:04:57.904Z,26.31
2022-08-07T20:07:46.662Z,26.27
2022-08-07T20:10:36.510Z,26.24
2022-08-07T20:13:22.846Z,26.26
2022-08-07T20:15:54.071Z,26.26
2022-08-07T20:18:21.912Z,26.27
2022-08-07T20:21:03.477Z,26.29
2022-08-07T20:23:53.913Z,26.35
2022-08-07T20:26:32.762Z,26.21
2022-08-07T20:29:46.701Z,26.05
2022-08-07T20:32:01.089Z,25.95
2022-08-07T20:34:49.698Z,25.96
2022-08-07T20:37:21.575Z,25.79
2022-08-07T20:40:02.231Z,25.78
2022-08-07T20:42:32.228Z,25.78
2022-08-07T20:45:01.058Z,25.74
2022-08-07T20:47:56.447Z,25.63
2022-08-07T20:50:20.417Z,25.51
2022-08-07T20:52:51.458Z,25.50
2022-08-07T20:55:23.793Z,25.43
2022-08-07T20:58:02.389Z,25.35
2022-08-07T21:00:42.586Z,25.35
2022-08-07T21:03:14.103Z,25.39
2022-08-07T21:05:54.522Z,25.36
2022-08-07T21:08:37.902Z,25.37
2022-08-07T21:11:12.414Z,25.43
2022-08-07T21:14:16.401Z,25.40
2022-08-07T21:16:56.976Z,25.17
2022-08-07T21:19:51.430Z,25.17
2022-08-07T21:22:34.422Z,25.09
2022-08-07T21:25:13.579Z,25.00
2022-08-07T21:28:02.181Z,24.79
2022-08-07T21:30:46.858Z,24.74
2022-08-07T21:33:22.013Z,24.81
2022-08-07T21:36:35.995Z,24.95
2022-08-07T21:39:46.809Z,25.01
2022-08-07T21:42:42.000Z,25.07
2022-08-07T21:46:09.223Z,25.11
2022-08-07T21:48:28.861Z,25.21
2022-08-07T21:51:20.035Z,25.27
2022-08-07T21:53:54.026Z,25.30
2022-08-07T21:56:50.615Z,25.31
2022-08-07T22:00:05.063Z,25.33
2022-08-07T22:03:30.900Z,25.40
2022-08-07T22:06:06.684Z,25.36
2022-08-07T22:09:12.492Z,25.43
2022-08-07T22:12:05.328Z,25.52
2022-08-07T22:14:59.418Z,25.58
2022-08-07T22:17:37.508Z,25.58
2022-08-07T22:20:22.901Z,25.48
2022-08-07T22:22:57.308Z,25.35
2022-08-07T22:25:51.226Z,25.34
2022-08-07T22:28:42.808Z,25.25
2022-08-07T22:31:59.744Z,25.05
2022-08-07T22:34:28.964Z,24.86
2022-08-07T22:37:04.930Z,24.79
2022-08-07T22:39:53.238Z,24.65
2022-08-07T22:42:26.094Z,24.70
2022-08-07T22:44:59.840Z,24.61
2022-08-07T22:47:38.571Z,24.65
2022-08-07T22:50:33.710Z,24.61
2022-08-07T22:53:15.333Z,24.60
2022-08-07T22:55:51.540Z,24.56
2022-08-07T22:58:39.307Z,24.51
2022-08-07T23:01:11.666Z,24.52
2022-08-07T23:04:12.643Z,24.46
2022-08-07T23:07:01.230Z,24.50
2022-08-07T23:10:00.681Z,24.51
2022-08-07T23:12:53.857Z,24.52
2022-08-07T23:16:06.418Z,24.50
2022-08-07T23:19:13.659Z,24.44
2022-08-07T23:21:49.249Z,24.38
2022-08-07T23:24:21.996Z,24.35
2022-08-07T23:27:34.096Z,24.34
2022-08-07T23:30:38.524Z,24.35
2022-08-07T23:34:34.962Z,24.30
2022-08-07T23:36:35.463Z,24.13
2022-08-07T23:39:40.936Z,24.14
2022-08-07T23:42:36.040Z,24.21
2022-08-07T23:46:02.221Z,24.22
2022-08-07T23:48:09.376Z,24.26
2022-08-07T23:52:55.895Z,24.18
2022-08-07T23:54:28.471Z,23.90
2022-08-07T23:57:18.547Z,24.01
